LCLK Airport Information

Runway Information
Runway 04 Length 9776 ft width 148 ft
Elevation 11 ft Threshold 0 ft Heading 45
Runway 22 Length 9776 ft Width 148 ft
Elevation 6 ft Threshold 575 ft Heading 225
Airport Frequencies
Type APP Name APP Frequency 121.2 MHZ
Type ATIS Name ATIS Frequency 126.55 MHZ
Type TWR Name TWR Frequency 119.4 MHZ
Airport Navaids
Type VOR-DME Name Larnaca Frequency 112800 KHZ
Type NDB Name Larnaca Frequency 432 KHZ
Airport Weather Information & NOTAM
ADDS - METARS form results

(2032 UTC 25 April 2019)
Data provider http://aviationweather.gov/metar/data/
 
METAR text: LCLK 252030Z 26001KT CAVOK 17/13 Q1019 NOSIG
Conditions at: LCLK (LARNACA/LARNAX A, CY) observed 2030 UTC 25 April 2019
Temperature: 17.0°C (63°F)
Dewpoint: 13.0°C (55°F) [RH = 77%]
Pressure (altimeter): 30.09 inches Hg (1019.0 mb)
Winds: from the W (260 degrees) at 1 MPH (1 knots; 0.5 m/s)
Visibility: 6 or more miles (10+ km)
Ceiling: ceiling and visibility are OK
Clouds: unknown
Weather: no significant weather observed at this time

METAR text: LCLK 252000Z 33009KT CAVOK 17/11 Q1019 NOSIG
Conditions at: LCLK (LARNACA/LARNAX A, CY) observed 2000 UTC 25 April 2019
Temperature: 17.0°C (63°F)
Dewpoint: 11.0°C (52°F) [RH = 68%]
Pressure (altimeter): 30.09 inches Hg (1019.0 mb)
Winds: from the NNW (330 degrees) at 10 MPH (9 knots; 4.6 m/s)
Visibility: 6 or more miles (10+ km)
Ceiling: ceiling and visibility are OK
Clouds: unknown
Weather: no significant weather observed at this time

Forecast for: LCLK (LARNACA/LARNAX A, CY)
Text: TAF LCLK 251730Z 2518/2618 32006KT 9999 FEW020
Forecast period: 1800 UTC 25 April 2019 to 0800 UTC 26 April 2019
Forecast type: FROM: standard forecast or significant change
Winds: from the NW (320 degrees) at 7 MPH (6 knots; 3.1 m/s)
Visibility: 6 or more miles 10+ km)
Ceiling: at least 12,000 feet AGL
Clouds: few clouds at 2000 feet AGL
Weather: no significant weather forecast for this period
Text: PROB30
Forecast period: 1800 UTC 25 April 2019 to 1800 UTC 26 April 2019
Forecast type: TEMPORARY: The following changes expected for less than half the time period
Visibility: 3 miles (5 km)
Ceiling: unknown
Clouds: missing
Weather: DU  (widespread dust)
Text: TEMPO 2518/2618 5000 DU
Forecast period: 0800 to 1600 UTC 26 April 2019
Forecast type: BECOMING: Conditions expected to become as follows by 1100 UTC 26 April 2019
Winds: from the SSW (200 degrees) at 14 MPH (12 knots; 6.2 m/s)
Visibility: 6 or more miles 10+ km)
Ceiling: at least 12,000 feet AGL
Clouds: few clouds at 2000 feet AGL
Weather: no significant weather forecast for this period
Text: BECMG 2608/2611 20012KT
Forecast period: 1600 to 1800 UTC 26 April 2019
Forecast type: BECOMING: Conditions expected to become as follows by 1800 UTC 26 April 2019
Winds: from the NW (320 degrees) at 7 MPH (6 knots; 3.1 m/s)
Visibility: 6 or more miles 10+ km)
Ceiling: at least 12,000 feet AGL
Clouds: few clouds at 2000 feet AGL
Weather: no significant weather forecast for this period